sensor_id;sensor_type;location;lat;lon;timestamp;P1;durP1;ratioP1;P2;durP2;ratioP2
70733;SDS011;58320;48.804;9.252;2023-03-13T00:01:12;11.68;;;3.97;;
70733;SDS011;58320;48.804;9.252;2023-03-13T00:03:56;10.97;;;4.30;;
70733;SDS011;58320;48.804;9.252;2023-03-13T00:06:22;11.70;;;3.97;;
70733;SDS011;58320;48.804;9.252;2023-03-13T00:08:51;8.93;;;4.00;;
70733;SDS011;58320;48.804;9.252;2023-03-13T00:11:18;14.52;;;4.25;;
70733;SDS011;58320;48.804;9.252;2023-03-13T00:13:44;9.97;;;3.87;;
70733;SDS011;58320;48.804;9.252;2023-03-13T00:16:11;8.40;;;3.78;;
70733;SDS011;58320;48.804;9.252;2023-03-13T00:18:43;12.43;;;4.70;;
70733;SDS011;58320;48.804;9.252;2023-03-13T00:21:11;9.70;;;4.35;;
70733;SDS011;58320;48.804;9.252;2023-03-13T00:23:37;12.80;;;4.30;;
70733;SDS011;58320;48.804;9.252;2023-03-13T00:26:05;11.93;;;4.15;;
70733;SDS011;58320;48.804;9.252;2023-03-13T00:28:34;10.77;;;4.25;;
70733;SDS011;58320;48.804;9.252;2023-03-13T00:33:31;9.95;;;3.92;;
70733;SDS011;58320;48.804;9.252;2023-03-13T00:35:59;11.97;;;4.33;;
70733;SDS011;58320;48.804;9.252;2023-03-13T00:38:31;11.77;;;4.00;;
70733;SDS011;58320;48.804;9.252;2023-03-13T00:41:01;12.40;;;4.72;;
70733;SDS011;58320;48.804;9.252;2023-03-13T00:43:29;11.25;;;3.97;;
70733;SDS011;58320;48.804;9.252;2023-03-13T00:45:57;9.90;;;4.28;;
70733;SDS011;58320;48.804;9.252;2023-03-13T00:48:23;13.07;;;3.97;;
70733;SDS011;58320;48.804;9.252;2023-03-13T00:50:50;12.52;;;4.00;;
70733;SDS011;58320;48.804;9.252;2023-03-13T00:53:16;12.05;;;4.05;;
70733;SDS011;58320;48.804;9.252;2023-03-13T00:55:52;11.00;;;4.15;;
70733;SDS011;58320;48.804;9.252;2023-03-13T00:58:22;8.30;;;3.88;;
70733;SDS011;58320;48.804;9.252;2023-03-13T01:00:49;13.17;;;3.07;;
70733;SDS011;58320;48.804;9.252;2023-03-13T01:03:15;9.10;;;2.65;;
70733;SDS011;58320;48.804;9.252;2023-03-13T01:05:41;9.32;;;2.72;;
70733;SDS011;58320;48.804;9.252;2023-03-13T01:08:07;8.87;;;2.57;;
70733;SDS011;58320;48.804;9.252;2023-03-13T01:10:33;9.67;;;3.17;;
70733;SDS011;58320;48.804;9.252;2023-03-13T01:12:59;11.20;;;3.10;;
70733;SDS011;58320;48.804;9.252;2023-03-13T01:15:25;12.23;;;3.67;;
70733;SDS011;58320;48.804;9.252;2023-03-13T01:17:51;9.23;;;3.20;;
70733;SDS011;58320;48.804;9.252;2023-03-13T01:20:17;9.82;;;3.22;;
70733;SDS011;58320;48.804;9.252;2023-03-13T01:22:42;5.77;;;2.57;;
70733;SDS011;58320;48.804;9.252;2023-03-13T01:25:08;11.73;;;3.50;;
70733;SDS011;58320;48.804;9.252;2023-03-13T01:27:34;11.25;;;3.65;;
70733;SDS011;58320;48.804;9.252;2023-03-13T01:30:00;14.90;;;3.47;;
70733;SDS011;58320;48.804;9.252;2023-03-13T01:32:25;11.65;;;3.25;;
70733;SDS011;58320;48.804;9.252;2023-03-13T01:34:51;10.37;;;3.20;;
70733;SDS011;58320;48.804;9.252;2023-03-13T01:37:17;9.52;;;3.40;;
70733;SDS011;58320;48.804;9.252;2023-03-13T01:39:42;8.30;;;3.07;;
70733;SDS011;58320;48.804;9.252;2023-03-13T01:42:08;9.57;;;3.00;;
70733;SDS011;58320;48.804;9.252;2023-03-13T01:44:50;9.52;;;3.00;;
70733;SDS011;58320;48.804;9.252;2023-03-13T01:47:21;10.10;;;2.63;;
70733;SDS011;58320;48.804;9.252;2023-03-13T01:49:48;10.93;;;2.50;;
70733;SDS011;58320;48.804;9.252;2023-03-13T01:52:19;9.15;;;2.30;;
70733;SDS011;58320;48.804;9.252;2023-03-13T01:54:52;7.80;;;2.47;;
70733;SDS011;58320;48.804;9.252;2023-03-13T01:57:26;11.38;;;2.72;;
70733;SDS011;58320;48.804;9.252;2023-03-13T02:00:08;10.37;;;2.53;;
70733;SDS011;58320;48.804;9.252;2023-03-13T02:02:37;7.53;;;2.22;;
70733;SDS011;58320;48.804;9.252;2023-03-13T02:05:07;7.38;;;2.17;;
70733;SDS011;58320;48.804;9.252;2023-03-13T02:10:30;8.57;;;2.00;;
70733;SDS011;58320;48.804;9.252;2023-03-13T02:13:03;7.63;;;2.30;;
70733;SDS011;58320;48.804;9.252;2023-03-13T02:15:29;7.90;;;2.00;;
70733;SDS011;58320;48.804;9.252;2023-03-13T02:17:56;6.93;;;1.63;;
70733;SDS011;58320;48.804;9.252;2023-03-13T02:20:22;5.40;;;1.88;;
70733;SDS011;58320;48.804;9.252;2023-03-13T02:25:42;6.70;;;1.77;;
70733;SDS011;58320;48.804;9.252;2023-03-13T02:28:23;8.63;;;1.73;;
70733;SDS011;58320;48.804;9.252;2023-03-13T02:30:54;5.70;;;1.80;;
70733;SDS011;58320;48.804;9.252;2023-03-13T02:33:22;5.70;;;2.05;;
70733;SDS011;58320;48.804;9.252;2023-03-13T02:35:56;7.70;;;2.00;;
70733;SDS011;58320;48.804;9.252;2023-03-13T02:38:25;7.70;;;2.70;;
70733;SDS011;58320;48.804;9.252;2023-03-13T02:40:54;9.68;;;1.88;;
70733;SDS011;58320;48.804;9.252;2023-03-13T02:43:23;7.53;;;2.38;;
70733;SDS011;58320;48.804;9.252;2023-03-13T02:48:36;9.77;;;2.30;;
70733;SDS011;58320;48.804;9.252;2023-03-13T02:51:19;6.85;;;2.28;;
70733;SDS011;58320;48.804;9.252;2023-03-13T02:54:01;7.32;;;2.08;;
70733;SDS011;58320;48.804;9.252;2023-03-13T02:56:35;6.85;;;1.98;;
70733;SDS011;58320;48.804;9.252;2023-03-13T02:59:04;8.05;;;2.10;;
70733;SDS011;58320;48.804;9.252;2023-03-13T03:01:31;8.73;;;2.00;;
70733;SDS011;58320;48.804;9.252;2023-03-13T03:03:57;7.72;;;1.80;;
70733;SDS011;58320;48.804;9.252;2023-03-13T03:06:23;5.50;;;1.50;;
70733;SDS011;58320;48.804;9.252;2023-03-13T03:08:48;7.37;;;2.10;;
70733;SDS011;58320;48.804;9.252;2023-03-13T03:11:14;6.32;;;1.55;;
70733;SDS011;58320;48.804;9.252;2023-03-13T03:13:40;7.88;;;1.48;;
70733;SDS011;58320;48.804;9.252;2023-03-13T03:16:07;6.63;;;1.50;;
70733;SDS011;58320;48.804;9.252;2023-03-13T03:18:35;5.93;;;1.30;;
70733;SDS011;58320;48.804;9.252;2023-03-13T03:21:01;5.47;;;1.40;;
70733;SDS011;58320;48.804;9.252;2023-03-13T03:23:30;3.55;;;1.40;;
70733;SDS011;58320;48.804;9.252;2023-03-13T03:25:58;3.90;;;1.40;;
70733;SDS011;58320;48.804;9.252;2023-03-13T03:28:24;3.40;;;1.20;;
70733;SDS011;58320;48.804;9.252;2023-03-13T03:30:49;6.35;;;1.50;;
70733;SDS011;58320;48.804;9.252;2023-03-13T03:33:18;3.60;;;0.93;;
70733;SDS011;58320;48.804;9.252;2023-03-13T03:35:47;5.18;;;1.30;;
70733;SDS011;58320;48.804;9.252;2023-03-13T03:38:14;4.90;;;1.02;;
70733;SDS011;58320;48.804;9.252;2023-03-13T03:40:41;4.88;;;1.25;;
70733;SDS011;58320;48.804;9.252;2023-03-13T03:43:07;5.25;;;1.38;;
70733;SDS011;58320;48.804;9.252;2023-03-13T03:45:32;6.23;;;1.17;;
70733;SDS011;58320;48.804;9.252;2023-03-13T03:47:58;5.95;;;1.38;;
70733;SDS011;58320;48.804;9.252;2023-03-13T03:50:25;5.78;;;1.73;;
70733;SDS011;58320;48.804;9.252;2023-03-13T03:52:51;5.53;;;1.90;;
70733;SDS011;58320;48.804;9.252;2023-03-13T03:55:17;6.32;;;1.30;;
70733;SDS011;58320;48.804;9.252;2023-03-13T03:57:44;8.98;;;1.50;;
70733;SDS011;58320;48.804;9.252;2023-03-13T04:00:10;2.97;;;1.30;;
70733;SDS011;58320;48.804;9.252;2023-03-13T04:02:38;5.50;;;1.38;;
70733;SDS011;58320;48.804;9.252;2023-03-13T04:05:04;4.70;;;1.42;;
70733;SDS011;58320;48.804;9.252;2023-03-13T04:07:30;8.23;;;1.40;;
70733;SDS011;58320;48.804;9.252;2023-03-13T04:09:56;4.28;;;1.38;;
70733;SDS011;58320;48.804;9.252;2023-03-13T04:12:21;5.73;;;1.50;;
70733;SDS011;58320;48.804;9.252;2023-03-13T04:14:47;4.75;;;1.75;;
70733;SDS011;58320;48.804;9.252;2023-03-13T04:17:13;4.20;;;1.40;;
70733;SDS011;58320;48.804;9.252;2023-03-13T04:19:39;5.85;;;2.13;;
70733;SDS011;58320;48.804;9.252;2023-03-13T04:22:05;5.47;;;1.70;;
70733;SDS011;58320;48.804;9.252;2023-03-13T04:24:31;5.50;;;1.65;;
70733;SDS011;58320;48.804;9.252;2023-03-13T04:26:57;5.03;;;1.10;;
70733;SDS011;58320;48.804;9.252;2023-03-13T04:29:23;8.02;;;1.45;;
70733;SDS011;58320;48.804;9.252;2023-03-13T04:31:58;4.43;;;1.33;;
70733;SDS011;58320;48.804;9.252;2023-03-13T04:34:25;2.20;;;0.80;;
70733;SDS011;58320;48.804;9.252;2023-03-13T04:36:51;4.00;;;1.00;;
70733;SDS011;58320;48.804;9.252;2023-03-13T04:39:17;3.67;;;1.10;;
70733;SDS011;58320;48.804;9.252;2023-03-13T04:41:43;3.08;;;0.90;;
70733;SDS011;58320;48.804;9.252;2023-03-13T04:44:09;1.73;;;0.67;;
70733;SDS011;58320;48.804;9.252;2023-03-13T04:46:34;2.28;;;1.00;;
70733;SDS011;58320;48.804;9.252;2023-03-13T04:49:00;2.83;;;0.80;;
70733;SDS011;58320;48.804;9.252;2023-03-13T04:51:26;2.80;;;1.00;;
70733;SDS011;58320;48.804;9.252;2023-03-13T04:53:52;3.17;;;1.00;;
70733;SDS011;58320;48.804;9.252;2023-03-13T04:56:22;3.87;;;1.07;;
70733;SDS011;58320;48.804;9.252;2023-03-13T04:58:49;2.50;;;0.80;;
70733;SDS011;58320;48.804;9.252;2023-03-13T05:01:15;3.00;;;0.82;;
70733;SDS011;58320;48.804;9.252;2023-03-13T05:03:41;1.80;;;0.70;;
70733;SDS011;58320;48.804;9.252;2023-03-13T05:06:07;4.18;;;1.02;;
70733;SDS011;58320;48.804;9.252;2023-03-13T05:08:32;3.20;;;0.87;;
70733;SDS011;58320;48.804;9.252;2023-03-13T05:11:00;3.42;;;0.75;;
70733;SDS011;58320;48.804;9.252;2023-03-13T05:13:26;2.35;;;0.90;;
70733;SDS011;58320;48.804;9.252;2023-03-13T05:15:52;3.17;;;1.00;;
70733;SDS011;58320;48.804;9.252;2023-03-13T05:18:18;2.28;;;0.77;;
70733;SDS011;58320;48.804;9.252;2023-03-13T05:20:44;3.77;;;0.93;;
70733;SDS011;58320;48.804;9.252;2023-03-13T05:23:09;1.67;;;0.60;;
70733;SDS011;58320;48.804;9.252;2023-03-13T05:25:35;3.37;;;1.10;;
70733;SDS011;58320;48.804;9.252;2023-03-13T05:28:01;3.13;;;1.00;;
70733;SDS011;58320;48.804;9.252;2023-03-13T05:30:27;3.17;;;1.00;;
70733;SDS011;58320;48.804;9.252;2023-03-13T05:32:53;2.87;;;0.90;;
70733;SDS011;58320;48.804;9.252;2023-03-13T05:35:19;3.97;;;0.85;;
70733;SDS011;58320;48.804;9.252;2023-03-13T05:37:44;2.40;;;0.80;;
70733;SDS011;58320;48.804;9.252;2023-03-13T05:40:11;2.42;;;0.90;;
70733;SDS011;58320;48.804;9.252;2023-03-13T05:42:37;3.00;;;0.90;;
70733;SDS011;58320;48.804;9.252;2023-03-13T05:45:04;3.00;;;1.00;;
70733;SDS011;58320;48.804;9.252;2023-03-13T05:47:32;2.15;;;1.10;;
70733;SDS011;58320;48.804;9.252;2023-03-13T05:49:58;2.37;;;0.77;;
70733;SDS011;58320;48.804;9.252;2023-03-13T05:52:24;3.55;;;0.98;;
70733;SDS011;58320;48.804;9.252;2023-03-13T05:54:50;3.33;;;0.83;;
70733;SDS011;58320;48.804;9.252;2023-03-13T05:57:15;4.85;;;1.00;;
70733;SDS011;58320;48.804;9.252;2023-03-13T05:59:41;2.08;;;0.70;;
70733;SDS011;58320;48.804;9.252;2023-03-13T06:02:07;2.97;;;1.00;;
70733;SDS011;58320;48.804;9.252;2023-03-13T06:04:33;1.80;;;1.00;;
70733;SDS011;58320;48.804;9.252;2023-03-13T06:06:59;1.80;;;0.60;;
70733;SDS011;58320;48.804;9.252;2023-03-13T06:09:26;2.10;;;0.65;;
70733;SDS011;58320;48.804;9.252;2023-03-13T06:11:51;2.13;;;0.70;;
70733;SDS011;58320;48.804;9.252;2023-03-13T06:14:17;2.67;;;0.65;;
70733;SDS011;58320;48.804;9.252;2023-03-13T06:16:43;3.00;;;0.73;;
70733;SDS011;58320;48.804;9.252;2023-03-13T06:19:09;3.53;;;0.80;;
70733;SDS011;58320;48.804;9.252;2023-03-13T06:21:35;3.90;;;0.80;;
70733;SDS011;58320;48.804;9.252;2023-03-13T06:24:01;2.28;;;0.90;;
70733;SDS011;58320;48.804;9.252;2023-03-13T06:26:28;2.47;;;1.00;;
70733;SDS011;58320;48.804;9.252;2023-03-13T06:28:53;3.47;;;0.80;;
70733;SDS011;58320;48.804;9.252;2023-03-13T06:31:20;1.73;;;0.60;;
70733;SDS011;58320;48.804;9.252;2023-03-13T06:33:46;2.97;;;0.82;;
70733;SDS011;58320;48.804;9.252;2023-03-13T06:36:12;1.90;;;0.70;;
70733;SDS011;58320;48.804;9.252;2023-03-13T06:38:38;1.63;;;0.70;;
70733;SDS011;58320;48.804;9.252;2023-03-13T06:41:04;2.35;;;1.02;;
70733;SDS011;58320;48.804;9.252;2023-03-13T06:43:31;2.50;;;0.68;;
70733;SDS011;58320;48.804;9.252;2023-03-13T06:46:01;4.13;;;0.93;;
70733;SDS011;58320;48.804;9.252;2023-03-13T06:48:29;2.00;;;0.70;;
70733;SDS011;58320;48.804;9.252;2023-03-13T06:50:55;2.88;;;0.70;;
70733;SDS011;58320;48.804;9.252;2023-03-13T06:53:21;2.17;;;0.80;;
70733;SDS011;58320;48.804;9.252;2023-03-13T06:55:47;3.73;;;0.80;;
70733;SDS011;58320;48.804;9.252;2023-03-13T06:58:13;3.58;;;0.90;;
70733;SDS011;58320;48.804;9.252;2023-03-13T07:00:40;1.55;;;0.68;;
70733;SDS011;58320;48.804;9.252;2023-03-13T07:03:08;1.85;;;0.68;;
70733;SDS011;58320;48.804;9.252;2023-03-13T07:05:38;2.13;;;0.80;;
70733;SDS011;58320;48.804;9.252;2023-03-13T07:08:04;2.57;;;0.70;;
70733;SDS011;58320;48.804;9.252;2023-03-13T07:10:30;1.75;;;0.70;;
70733;SDS011;58320;48.804;9.252;2023-03-13T07:12:56;2.05;;;0.77;;
70733;SDS011;58320;48.804;9.252;2023-03-13T07:15:22;1.50;;;0.60;;
70733;SDS011;58320;48.804;9.252;2023-03-13T07:17:48;4.00;;;0.80;;
70733;SDS011;58320;48.804;9.252;2023-03-13T07:20:14;3.28;;;1.50;;
70733;SDS011;58320;48.804;9.252;2023-03-13T07:22:40;3.88;;;0.73;;
70733;SDS011;58320;48.804;9.252;2023-03-13T07:25:06;3.10;;;1.08;;
70733;SDS011;58320;48.804;9.252;2023-03-13T07:27:33;1.80;;;0.65;;
70733;SDS011;58320;48.804;9.252;2023-03-13T07:30:00;1.80;;;0.70;;
70733;SDS011;58320;48.804;9.252;2023-03-13T07:32:30;3.65;;;1.20;;
70733;SDS011;58320;48.804;9.252;2023-03-13T07:34:57;2.25;;;0.75;;
70733;SDS011;58320;48.804;9.252;2023-03-13T07:37:22;2.17;;;0.77;;
70733;SDS011;58320;48.804;9.252;2023-03-13T07:39:48;2.45;;;0.80;;
70733;SDS011;58320;48.804;9.252;2023-03-13T07:42:14;2.87;;;1.10;;
70733;SDS011;58320;48.804;9.252;2023-03-13T07:44:39;4.15;;;1.02;;
70733;SDS011;58320;48.804;9.252;2023-03-13T07:47:05;2.13;;;0.93;;
70733;SDS011;58320;48.804;9.252;2023-03-13T07:49:31;2.00;;;0.80;;
70733;SDS011;58320;48.804;9.252;2023-03-13T07:51:57;2.72;;;0.77;;
70733;SDS011;58320;48.804;9.252;2023-03-13T07:54:23;2.43;;;1.00;;
70733;SDS011;58320;48.804;9.252;2023-03-13T07:56:49;2.40;;;1.02;;
70733;SDS011;58320;48.804;9.252;2023-03-13T07:59:15;2.53;;;0.90;;
70733;SDS011;58320;48.804;9.252;2023-03-13T08:01:41;3.03;;;0.87;;
70733;SDS011;58320;48.804;9.252;2023-03-13T08:04:08;3.25;;;0.90;;
70733;SDS011;58320;48.804;9.252;2023-03-13T08:06:38;2.70;;;1.00;;
70733;SDS011;58320;48.804;9.252;2023-03-13T08:09:05;2.42;;;0.80;;
70733;SDS011;58320;48.804;9.252;2023-03-13T08:11:31;2.00;;;0.70;;
70733;SDS011;58320;48.804;9.252;2023-03-13T08:13:56;2.92;;;1.20;;
70733;SDS011;58320;48.804;9.252;2023-03-13T08:16:26;2.22;;;1.00;;
70733;SDS011;58320;48.804;9.252;2023-03-13T08:18:55;2.85;;;1.10;;
70733;SDS011;58320;48.804;9.252;2023-03-13T08:21:26;2.77;;;0.90;;
70733;SDS011;58320;48.804;9.252;2023-03-13T08:23:55;1.52;;;0.70;;
70733;SDS011;58320;48.804;9.252;2023-03-13T08:26:26;2.33;;;0.90;;
70733;SDS011;58320;48.804;9.252;2023-03-13T08:28:54;1.83;;;0.70;;
70733;SDS011;58320;48.804;9.252;2023-03-13T08:31:24;1.50;;;0.63;;
70733;SDS011;58320;48.804;9.252;2023-03-13T08:33:58;2.40;;;0.70;;
70733;SDS011;58320;48.804;9.252;2023-03-13T08:36:25;1.98;;;0.80;;
70733;SDS011;58320;48.804;9.252;2023-03-13T08:39:05;2.03;;;0.90;;
70733;SDS011;58320;48.804;9.252;2023-03-13T08:41:35;2.55;;;0.90;;
70733;SDS011;58320;48.804;9.252;2023-03-13T08:44:02;2.33;;;0.80;;
70733;SDS011;58320;48.804;9.252;2023-03-13T08:46:29;2.10;;;0.70;;
70733;SDS011;58320;48.804;9.252;2023-03-13T08:48:57;2.33;;;0.85;;
70733;SDS011;58320;48.804;9.252;2023-03-13T08:51:24;2.72;;;0.95;;
70733;SDS011;58320;48.804;9.252;2023-03-13T08:53:52;2.92;;;0.85;;
70733;SDS011;58320;48.804;9.252;2023-03-13T08:56:20;2.45;;;1.00;;
70733;SDS011;58320;48.804;9.252;2023-03-13T08:58:50;2.17;;;0.90;;
70733;SDS011;58320;48.804;9.252;2023-03-13T09:01:22;2.58;;;1.05;;
70733;SDS011;58320;48.804;9.252;2023-03-13T09:03:50;3.80;;;0.95;;
70733;SDS011;58320;48.804;9.252;2023-03-13T09:06:16;2.42;;;1.17;;
70733;SDS011;58320;48.804;9.252;2023-03-13T09:08:42;2.27;;;1.00;;
70733;SDS011;58320;48.804;9.252;2023-03-13T09:11:10;2.88;;;0.85;;
70733;SDS011;58320;48.804;9.252;2023-03-13T09:13:40;3.05;;;1.02;;
70733;SDS011;58320;48.804;9.252;2023-03-13T09:16:09;2.70;;;1.13;;
70733;SDS011;58320;48.804;9.252;2023-03-13T09:18:38;2.55;;;1.10;;
70733;SDS011;58320;48.804;9.252;2023-03-13T09:21:06;3.40;;;0.80;;
70733;SDS011;58320;48.804;9.252;2023-03-13T09:23:34;3.60;;;1.13;;
70733;SDS011;58320;48.804;9.252;2023-03-13T09:26:00;2.63;;;1.13;;
70733;SDS011;58320;48.804;9.252;2023-03-13T09:28:26;2.08;;;0.90;;
70733;SDS011;58320;48.804;9.252;2023-03-13T09:30:52;3.23;;;1.27;;
70733;SDS011;58320;48.804;9.252;2023-03-13T09:33:18;4.03;;;1.17;;
70733;SDS011;58320;48.804;9.252;2023-03-13T09:35:47;2.55;;;1.00;;
70733;SDS011;58320;48.804;9.252;2023-03-13T09:38:19;3.13;;;1.02;;
70733;SDS011;58320;48.804;9.252;2023-03-13T09:40:47;3.38;;;1.00;;
70733;SDS011;58320;48.804;9.252;2023-03-13T09:45:46;2.85;;;1.10;;
70733;SDS011;58320;48.804;9.252;2023-03-13T09:51:12;4.50;;;1.30;;
70733;SDS011;58320;48.804;9.252;2023-03-13T09:57:06;3.37;;;1.20;;
70733;SDS011;58320;48.804;9.252;2023-03-13T10:02:38;3.40;;;0.95;;
70733;SDS011;58320;48.804;9.252;2023-03-13T10:05:19;3.95;;;1.33;;
70733;SDS011;58320;48.804;9.252;2023-03-13T10:07:54;2.80;;;0.95;;
70733;SDS011;58320;48.804;9.252;2023-03-13T10:10:52;8.93;;;1.30;;
70733;SDS011;58320;48.804;9.252;2023-03-13T10:18:44;2.83;;;1.10;;
70733;SDS011;58320;48.804;9.252;2023-03-13T10:21:18;3.13;;;1.30;;
70733;SDS011;58320;48.804;9.252;2023-03-13T10:23:48;5.23;;;1.40;;
70733;SDS011;58320;48.804;9.252;2023-03-13T10:26:36;6.18;;;1.40;;
70733;SDS011;58320;48.804;9.252;2023-03-13T10:29:21;3.72;;;1.58;;
70733;SDS011;58320;48.804;9.252;2023-03-13T10:31:59;4.63;;;1.40;;
70733;SDS011;58320;48.804;9.252;2023-03-13T10:40:22;3.28;;;1.35;;
70733;SDS011;58320;48.804;9.252;2023-03-13T10:42:51;3.72;;;1.35;;
70733;SDS011;58320;48.804;9.252;2023-03-13T10:45:25;3.38;;;1.42;;
70733;SDS011;58320;48.804;9.252;2023-03-13T10:47:59;5.00;;;1.30;;
70733;SDS011;58320;48.804;9.252;2023-03-13T10:50:31;3.38;;;1.20;;
70733;SDS011;58320;48.804;9.252;2023-03-13T10:53:18;3.83;;;1.50;;
70733;SDS011;58320;48.804;9.252;2023-03-13T10:55:46;3.38;;;1.50;;
70733;SDS011;58320;48.804;9.252;2023-03-13T10:58:16;3.53;;;1.50;;
70733;SDS011;58320;48.804;9.252;2023-03-13T11:00:48;4.17;;;1.30;;
70733;SDS011;58320;48.804;9.252;2023-03-13T11:03:15;4.75;;;1.50;;
70733;SDS011;58320;48.804;9.252;2023-03-13T11:05:54;3.72;;;1.25;;
70733;SDS011;58320;48.804;9.252;2023-03-13T11:08:23;2.72;;;1.20;;
70733;SDS011;58320;48.804;9.252;2023-03-13T11:11:01;3.75;;;1.30;;
70733;SDS011;58320;48.804;9.252;2023-03-13T11:16:05;4.95;;;1.30;;
70733;SDS011;58320;48.804;9.252;2023-03-13T11:21:07;4.00;;;1.55;;
70733;SDS011;58320;48.804;9.252;2023-03-13T11:23:49;3.00;;;1.45;;
70733;SDS011;58320;48.804;9.252;2023-03-13T11:26:39;4.27;;;1.80;;
70733;SDS011;58320;48.804;9.252;2023-03-13T11:31:58;4.43;;;1.50;;
70733;SDS011;58320;48.804;9.252;2023-03-13T11:37:15;3.08;;;1.48;;
70733;SDS011;58320;48.804;9.252;2023-03-13T11:42:58;5.25;;;1.70;;
70733;SDS011;58320;48.804;9.252;2023-03-13T11:51:45;3.30;;;1.27;;
70733;SDS011;58320;48.804;9.252;2023-03-13T11:54:30;3.63;;;1.40;;
70733;SDS011;58320;48.804;9.252;2023-03-13T11:57:27;4.00;;;1.60;;
70733;SDS011;58320;48.804;9.252;2023-03-13T12:00:30;10.40;;;1.63;;
70733;SDS011;58320;48.804;9.252;2023-03-13T12:05:46;5.28;;;1.30;;
70733;SDS011;58320;48.804;9.252;2023-03-13T12:11:39;3.33;;;1.50;;
70733;SDS011;58320;48.804;9.252;2023-03-13T12:13:56;3.42;;;1.25;;
70733;SDS011;58320;48.804;9.252;2023-03-13T12:16:42;5.80;;;1.40;;
70733;SDS011;58320;48.804;9.252;2023-03-13T12:19:15;4.53;;;1.33;;
70733;SDS011;58320;48.804;9.252;2023-03-13T12:22:07;2.90;;;1.17;;
70733;SDS011;58320;48.804;9.252;2023-03-13T12:25:10;3.05;;;1.30;;
70733;SDS011;58320;48.804;9.252;2023-03-13T12:27:43;4.10;;;1.70;;
70733;SDS011;58320;48.804;9.252;2023-03-13T12:35:39;3.47;;;1.40;;
70733;SDS011;58320;48.804;9.252;2023-03-13T12:38:21;3.50;;;1.20;;
70733;SDS011;58320;48.804;9.252;2023-03-13T12:41:25;2.47;;;1.17;;
70733;SDS011;58320;48.804;9.252;2023-03-13T12:44:17;3.95;;;1.20;;
70733;SDS011;58320;48.804;9.252;2023-03-13T12:47:30;2.88;;;1.15;;
70733;SDS011;58320;48.804;9.252;2023-03-13T12:50:00;2.83;;;1.20;;
70733;SDS011;58320;48.804;9.252;2023-03-13T13:04:19;2.45;;;1.08;;
70733;SDS011;58320;48.804;9.252;2023-03-13T13:09:34;2.95;;;1.20;;
70733;SDS011;58320;48.804;9.252;2023-03-13T13:12:19;3.22;;;1.30;;
70733;SDS011;58320;48.804;9.252;2023-03-13T13:17:25;3.63;;;1.37;;
70733;SDS011;58320;48.804;9.252;2023-03-13T13:19:56;2.67;;;1.30;;
70733;SDS011;58320;48.804;9.252;2023-03-13T13:32:44;2.80;;;0.90;;
70733;SDS011;58320;48.804;9.252;2023-03-13T13:43:48;2.80;;;1.08;;
70733;SDS011;58320;48.804;9.252;2023-03-13T13:46:47;6.20;;;1.10;;
70733;SDS011;58320;48.804;9.252;2023-03-13T13:49:24;2.90;;;1.00;;
70733;SDS011;58320;48.804;9.252;2023-03-13T13:57:18;3.88;;;1.10;;
70733;SDS011;58320;48.804;9.252;2023-03-13T13:59:56;3.50;;;0.93;;
70733;SDS011;58320;48.804;9.252;2023-03-13T14:02:52;3.42;;;1.48;;
70733;SDS011;58320;48.804;9.252;2023-03-13T14:05:24;2.80;;;0.90;;
70733;SDS011;58320;48.804;9.252;2023-03-13T14:07:56;3.00;;;0.70;;
70733;SDS011;58320;48.804;9.252;2023-03-13T14:10:50;2.70;;;1.10;;
70733;SDS011;58320;48.804;9.252;2023-03-13T14:13:38;3.03;;;1.20;;
70733;SDS011;58320;48.804;9.252;2023-03-13T14:16:21;3.22;;;0.90;;
70733;SDS011;58320;48.804;9.252;2023-03-13T14:18:50;4.32;;;1.13;;
70733;SDS011;58320;48.804;9.252;2023-03-13T14:21:20;2.87;;;1.00;;
70733;SDS011;58320;48.804;9.252;2023-03-13T14:23:51;3.03;;;0.90;;
70733;SDS011;58320;48.804;9.252;2023-03-13T14:26:18;2.20;;;0.80;;
70733;SDS011;58320;48.804;9.252;2023-03-13T14:28:51;4.00;;;1.10;;
70733;SDS011;58320;48.804;9.252;2023-03-13T14:31:28;3.15;;;1.20;;
70733;SDS011;58320;48.804;9.252;2023-03-13T14:34:00;4.72;;;1.48;;
70733;SDS011;58320;48.804;9.252;2023-03-13T14:36:29;2.27;;;1.00;;
70733;SDS011;58320;48.804;9.252;2023-03-13T14:39:11;2.63;;;1.05;;
70733;SDS011;58320;48.804;9.252;2023-03-13T14:44:29;2.83;;;1.17;;
70733;SDS011;58320;48.804;9.252;2023-03-13T14:47:08;3.80;;;1.00;;
70733;SDS011;58320;48.804;9.252;2023-03-13T14:49:54;3.43;;;1.20;;
70733;SDS011;58320;48.804;9.252;2023-03-13T14:52:27;2.70;;;0.93;;
70733;SDS011;58320;48.804;9.252;2023-03-13T14:54:55;3.47;;;1.15;;
70733;SDS011;58320;48.804;9.252;2023-03-13T14:57:52;3.60;;;1.30;;
70733;SDS011;58320;48.804;9.252;2023-03-13T15:03:15;4.40;;;1.20;;
70733;SDS011;58320;48.804;9.252;2023-03-13T15:08:36;2.80;;;1.10;;
70733;SDS011;58320;48.804;9.252;2023-03-13T15:11:16;3.25;;;1.25;;
70733;SDS011;58320;48.804;9.252;2023-03-13T15:13:45;4.75;;;1.30;;
70733;SDS011;58320;48.804;9.252;2023-03-13T15:16:13;5.20;;;1.00;;
70733;SDS011;58320;48.804;9.252;2023-03-13T15:18:45;4.10;;;1.50;;
70733;SDS011;58320;48.804;9.252;2023-03-13T15:23:40;2.90;;;1.03;;
70733;SDS011;58320;48.804;9.252;2023-03-13T15:26:18;3.65;;;1.13;;
70733;SDS011;58320;48.804;9.252;2023-03-13T15:28:43;2.83;;;1.00;;
70733;SDS011;58320;48.804;9.252;2023-03-13T15:31:12;2.92;;;1.20;;
70733;SDS011;58320;48.804;9.252;2023-03-13T15:33:39;2.60;;;1.30;;
70733;SDS011;58320;48.804;9.252;2023-03-13T15:36:06;3.20;;;1.30;;
70733;SDS011;58320;48.804;9.252;2023-03-13T15:38:32;2.42;;;1.10;;
70733;SDS011;58320;48.804;9.252;2023-03-13T15:40:58;2.83;;;1.30;;
70733;SDS011;58320;48.804;9.252;2023-03-13T15:43:24;2.20;;;1.00;;
70733;SDS011;58320;48.804;9.252;2023-03-13T15:45:50;2.50;;;1.23;;
70733;SDS011;58320;48.804;9.252;2023-03-13T15:48:20;2.85;;;1.13;;
70733;SDS011;58320;48.804;9.252;2023-03-13T15:50:56;3.75;;;1.40;;
70733;SDS011;58320;48.804;9.252;2023-03-13T15:53:25;3.40;;;1.30;;
70733;SDS011;58320;48.804;9.252;2023-03-13T15:55:54;3.85;;;1.05;;
70733;SDS011;58320;48.804;9.252;2023-03-13T15:58:23;2.23;;;0.93;;
70733;SDS011;58320;48.804;9.252;2023-03-13T16:00:50;4.13;;;1.40;;
70733;SDS011;58320;48.804;9.252;2023-03-13T16:03:25;3.47;;;1.25;;
70733;SDS011;58320;48.804;9.252;2023-03-13T16:05:53;4.30;;;1.40;;
70733;SDS011;58320;48.804;9.252;2023-03-13T16:08:24;3.05;;;1.15;;
70733;SDS011;58320;48.804;9.252;2023-03-13T16:10:52;4.30;;;1.50;;
70733;SDS011;58320;48.804;9.252;2023-03-13T16:13:18;3.47;;;1.43;;
70733;SDS011;58320;48.804;9.252;2023-03-13T16:15:45;2.87;;;1.40;;
70733;SDS011;58320;48.804;9.252;2023-03-13T16:18:19;2.85;;;1.20;;
70733;SDS011;58320;48.804;9.252;2023-03-13T16:20:48;6.32;;;1.90;;
70733;SDS011;58320;48.804;9.252;2023-03-13T16:23:15;5.13;;;1.70;;
70733;SDS011;58320;48.804;9.252;2023-03-13T16:25:41;3.57;;;1.23;;
70733;SDS011;58320;48.804;9.252;2023-03-13T16:28:10;3.80;;;1.33;;
70733;SDS011;58320;48.804;9.252;2023-03-13T16:30:37;3.45;;;1.17;;
70733;SDS011;58320;48.804;9.252;2023-03-13T16:33:05;3.38;;;1.30;;
70733;SDS011;58320;48.804;9.252;2023-03-13T16:35:32;4.30;;;1.30;;
70733;SDS011;58320;48.804;9.252;2023-03-13T16:37:58;3.03;;;1.27;;
70733;SDS011;58320;48.804;9.252;2023-03-13T16:40:31;5.25;;;1.83;;
70733;SDS011;58320;48.804;9.252;2023-03-13T16:42:58;4.18;;;1.50;;
70733;SDS011;58320;48.804;9.252;2023-03-13T16:45:24;6.07;;;1.60;;
70733;SDS011;58320;48.804;9.252;2023-03-13T16:47:50;3.30;;;1.50;;
70733;SDS011;58320;48.804;9.252;2023-03-13T16:52:58;4.07;;;1.70;;
70733;SDS011;58320;48.804;9.252;2023-03-13T16:55:24;4.53;;;1.15;;
70733;SDS011;58320;48.804;9.252;2023-03-13T16:58:00;3.75;;;1.40;;
70733;SDS011;58320;48.804;9.252;2023-03-13T17:00:27;3.83;;;1.53;;
70733;SDS011;58320;48.804;9.252;2023-03-13T17:02:55;5.15;;;1.65;;